sensor_id;sensor_type;location;lat;lon;timestamp;P1;durP1;ratioP1;P2;durP2;ratioP2
30420;SDS011;17218;54.070;10.012;2023-02-21T00:01:46;5.45;;;2.45;;
30420;SDS011;17218;54.070;10.012;2023-02-21T00:04:30;6.72;;;2.20;;
30420;SDS011;17218;54.070;10.012;2023-02-21T00:07:14;5.30;;;2.10;;
30420;SDS011;17218;54.070;10.012;2023-02-21T00:09:58;4.82;;;2.17;;
30420;SDS011;17218;54.070;10.012;2023-02-21T00:12:43;6.82;;;2.95;;
30420;SDS011;17218;54.070;10.012;2023-02-21T00:15:27;7.78;;;2.90;;
30420;SDS011;17218;54.070;10.012;2023-02-21T00:18:11;9.75;;;2.80;;
30420;SDS011;17218;54.070;10.012;2023-02-21T00:20:55;9.00;;;3.05;;
30420;SDS011;17218;54.070;10.012;2023-02-21T00:23:39;9.43;;;3.15;;
30420;SDS011;17218;54.070;10.012;2023-02-21T00:26:23;11.10;;;3.67;;
30420;SDS011;17218;54.070;10.012;2023-02-21T00:29:08;15.77;;;4.30;;
30420;SDS011;17218;54.070;10.012;2023-02-21T00:31:52;13.45;;;3.95;;
30420;SDS011;17218;54.070;10.012;2023-02-21T00:34:36;7.47;;;3.55;;
30420;SDS011;17218;54.070;10.012;2023-02-21T00:37:20;15.02;;;3.88;;
30420;SDS011;17218;54.070;10.012;2023-02-21T00:40:05;12.38;;;3.35;;
30420;SDS011;17218;54.070;10.012;2023-02-21T00:42:49;13.27;;;4.28;;
30420;SDS011;17218;54.070;10.012;2023-02-21T00:45:34;14.18;;;3.85;;
30420;SDS011;17218;54.070;10.012;2023-02-21T00:48:18;11.10;;;3.78;;
30420;SDS011;17218;54.070;10.012;2023-02-21T00:51:03;13.57;;;4.97;;
30420;SDS011;17218;54.070;10.012;2023-02-21T00:53:47;10.88;;;3.65;;
30420;SDS011;17218;54.070;10.012;2023-02-21T00:56:30;13.75;;;3.05;;
30420;SDS011;17218;54.070;10.012;2023-02-21T00:59:15;11.50;;;2.75;;
30420;SDS011;17218;54.070;10.012;2023-02-21T01:02:00;14.45;;;3.65;;
30420;SDS011;17218;54.070;10.012;2023-02-21T01:04:44;11.88;;;3.08;;
30420;SDS011;17218;54.070;10.012;2023-02-21T01:07:27;8.18;;;2.63;;
30420;SDS011;17218;54.070;10.012;2023-02-21T01:10:11;12.02;;;3.08;;
30420;SDS011;17218;54.070;10.012;2023-02-21T01:12:55;8.95;;;2.45;;
30420;SDS011;17218;54.070;10.012;2023-02-21T01:15:39;20.27;;;2.70;;
30420;SDS011;17218;54.070;10.012;2023-02-21T01:18:24;10.48;;;2.80;;
30420;SDS011;17218;54.070;10.012;2023-02-21T01:21:11;10.13;;;2.30;;
30420;SDS011;17218;54.070;10.012;2023-02-21T01:23:55;10.10;;;2.03;;
30420;SDS011;17218;54.070;10.012;2023-02-21T01:26:39;13.35;;;2.30;;
30420;SDS011;17218;54.070;10.012;2023-02-21T01:29:23;10.93;;;2.47;;
30420;SDS011;17218;54.070;10.012;2023-02-21T01:32:06;13.95;;;2.20;;
30420;SDS011;17218;54.070;10.012;2023-02-21T01:34:52;12.70;;;2.80;;
30420;SDS011;17218;54.070;10.012;2023-02-21T01:37:38;6.55;;;1.95;;
30420;SDS011;17218;54.070;10.012;2023-02-21T01:40:22;5.47;;;2.72;;
30420;SDS011;17218;54.070;10.012;2023-02-21T01:43:09;8.02;;;2.40;;
30420;SDS011;17218;54.070;10.012;2023-02-21T01:45:57;7.95;;;2.30;;
30420;SDS011;17218;54.070;10.012;2023-02-21T01:48:41;7.03;;;2.30;;
30420;SDS011;17218;54.070;10.012;2023-02-21T01:51:28;7.07;;;1.73;;
30420;SDS011;17218;54.070;10.012;2023-02-21T01:54:16;9.18;;;1.90;;
30420;SDS011;17218;54.070;10.012;2023-02-21T01:57:01;6.55;;;1.52;;
30420;SDS011;17218;54.070;10.012;2023-02-21T01:59:46;5.75;;;2.10;;
30420;SDS011;17218;54.070;10.012;2023-02-21T02:02:34;7.78;;;2.05;;
30420;SDS011;17218;54.070;10.012;2023-02-21T02:05:22;4.90;;;1.77;;
30420;SDS011;17218;54.070;10.012;2023-02-21T02:08:08;5.88;;;1.33;;
30420;SDS011;17218;54.070;10.012;2023-02-21T02:10:55;6.05;;;1.35;;
30420;SDS011;17218;54.070;10.012;2023-02-21T02:13:52;5.28;;;1.30;;
30420;SDS011;17218;54.070;10.012;2023-02-21T02:16:31;8.15;;;2.17;;
30420;SDS011;17218;54.070;10.012;2023-02-21T02:22:15;9.88;;;1.75;;
30420;SDS011;17218;54.070;10.012;2023-02-21T02:24:57;13.75;;;2.58;;
30420;SDS011;17218;54.070;10.012;2023-02-21T02:27:46;9.43;;;2.10;;
30420;SDS011;17218;54.070;10.012;2023-02-21T02:30:26;9.25;;;1.92;;
30420;SDS011;17218;54.070;10.012;2023-02-21T02:36:08;6.85;;;1.83;;
30420;SDS011;17218;54.070;10.012;2023-02-21T02:38:39;13.77;;;2.25;;
30420;SDS011;17218;54.070;10.012;2023-02-21T02:41:15;7.50;;;1.75;;
30420;SDS011;17218;54.070;10.012;2023-02-21T02:43:47;6.45;;;1.70;;
30420;SDS011;17218;54.070;10.012;2023-02-21T02:46:21;10.38;;;2.30;;
30420;SDS011;17218;54.070;10.012;2023-02-21T02:48:50;6.70;;;2.15;;
30420;SDS011;17218;54.070;10.012;2023-02-21T02:51:24;11.13;;;2.13;;
30420;SDS011;17218;54.070;10.012;2023-02-21T02:53:51;8.27;;;2.25;;
30420;SDS011;17218;54.070;10.012;2023-02-21T02:56:18;5.65;;;1.67;;
30420;SDS011;17218;54.070;10.012;2023-02-21T02:58:47;7.88;;;1.77;;
30420;SDS011;17218;54.070;10.012;2023-02-21T03:01:26;8.85;;;1.88;;
30420;SDS011;17218;54.070;10.012;2023-02-21T03:04:18;9.57;;;2.70;;
30420;SDS011;17218;54.070;10.012;2023-02-21T03:07:00;7.00;;;2.08;;
30420;SDS011;17218;54.070;10.012;2023-02-21T03:09:33;10.43;;;2.88;;
30420;SDS011;17218;54.070;10.012;2023-02-21T03:12:09;9.93;;;1.85;;
30420;SDS011;17218;54.070;10.012;2023-02-21T03:14:45;10.10;;;2.38;;
30420;SDS011;17218;54.070;10.012;2023-02-21T03:17:16;11.75;;;2.47;;
30420;SDS011;17218;54.070;10.012;2023-02-21T03:19:48;13.18;;;2.60;;
30420;SDS011;17218;54.070;10.012;2023-02-21T03:22:20;9.40;;;2.63;;
30420;SDS011;17218;54.070;10.012;2023-02-21T03:24:50;12.95;;;2.85;;
30420;SDS011;17218;54.070;10.012;2023-02-21T03:27:19;10.82;;;2.95;;
30420;SDS011;17218;54.070;10.012;2023-02-21T03:29:48;11.40;;;2.55;;
30420;SDS011;17218;54.070;10.012;2023-02-21T03:32:17;13.35;;;2.30;;
30420;SDS011;17218;54.070;10.012;2023-02-21T03:34:48;16.38;;;3.50;;
30420;SDS011;17218;54.070;10.012;2023-02-21T03:37:18;17.92;;;2.80;;
30420;SDS011;17218;54.070;10.012;2023-02-21T03:39:47;13.40;;;2.30;;
30420;SDS011;17218;54.070;10.012;2023-02-21T03:42:13;12.77;;;2.75;;
30420;SDS011;17218;54.070;10.012;2023-02-21T03:44:40;12.35;;;3.35;;
30420;SDS011;17218;54.070;10.012;2023-02-21T03:47:06;12.68;;;2.35;;
30420;SDS011;17218;54.070;10.012;2023-02-21T03:49:33;9.27;;;2.30;;
30420;SDS011;17218;54.070;10.012;2023-02-21T03:51:59;13.85;;;3.10;;
30420;SDS011;17218;54.070;10.012;2023-02-21T03:54:27;11.30;;;2.42;;
30420;SDS011;17218;54.070;10.012;2023-02-21T03:56:53;20.75;;;3.20;;
30420;SDS011;17218;54.070;10.012;2023-02-21T03:59:20;16.30;;;3.35;;
30420;SDS011;17218;54.070;10.012;2023-02-21T04:01:46;11.98;;;2.83;;
30420;SDS011;17218;54.070;10.012;2023-02-21T04:04:13;16.23;;;3.25;;
30420;SDS011;17218;54.070;10.012;2023-02-21T04:06:39;12.80;;;2.65;;
30420;SDS011;17218;54.070;10.012;2023-02-21T04:09:06;14.90;;;2.83;;
30420;SDS011;17218;54.070;10.012;2023-02-21T04:11:33;16.58;;;2.97;;
30420;SDS011;17218;54.070;10.012;2023-02-21T04:14:00;22.48;;;4.15;;
30420;SDS011;17218;54.070;10.012;2023-02-21T04:16:28;15.13;;;3.08;;
30420;SDS011;17218;54.070;10.012;2023-02-21T04:18:55;15.52;;;3.15;;
30420;SDS011;17218;54.070;10.012;2023-02-21T04:21:22;15.02;;;3.05;;
30420;SDS011;17218;54.070;10.012;2023-02-21T04:23:49;19.08;;;3.75;;
30420;SDS011;17218;54.070;10.012;2023-02-21T04:26:15;20.42;;;3.20;;
30420;SDS011;17218;54.070;10.012;2023-02-21T04:35:26;11.70;;;2.58;;
30420;SDS011;17218;54.070;10.012;2023-02-21T04:37:53;19.48;;;4.30;;
30420;SDS011;17218;54.070;10.012;2023-02-21T04:40:19;17.50;;;4.28;;
30420;SDS011;17218;54.070;10.012;2023-02-21T04:42:46;21.63;;;3.97;;
30420;SDS011;17218;54.070;10.012;2023-02-21T04:45:12;17.98;;;3.47;;
30420;SDS011;17218;54.070;10.012;2023-02-21T04:47:39;18.13;;;4.13;;
30420;SDS011;17218;54.070;10.012;2023-02-21T04:50:05;11.27;;;3.55;;
30420;SDS011;17218;54.070;10.012;2023-02-21T04:52:33;23.55;;;3.50;;
30420;SDS011;17218;54.070;10.012;2023-02-21T04:55:00;19.88;;;4.18;;
30420;SDS011;17218;54.070;10.012;2023-02-21T04:57:26;15.93;;;3.92;;
30420;SDS011;17218;54.070;10.012;2023-02-21T04:59:56;17.73;;;4.00;;
30420;SDS011;17218;54.070;10.012;2023-02-21T05:02:23;15.65;;;3.47;;
30420;SDS011;17218;54.070;10.012;2023-02-21T05:04:50;23.25;;;4.40;;
30420;SDS011;17218;54.070;10.012;2023-02-21T05:07:16;26.27;;;5.05;;
30420;SDS011;17218;54.070;10.012;2023-02-21T05:09:44;19.42;;;3.85;;
30420;SDS011;17218;54.070;10.012;2023-02-21T05:12:11;19.08;;;3.40;;
30420;SDS011;17218;54.070;10.012;2023-02-21T05:14:37;16.60;;;3.90;;
30420;SDS011;17218;54.070;10.012;2023-02-21T05:17:04;20.48;;;4.10;;
30420;SDS011;17218;54.070;10.012;2023-02-21T05:19:31;22.73;;;4.78;;
30420;SDS011;17218;54.070;10.012;2023-02-21T05:21:59;17.42;;;3.47;;
30420;SDS011;17218;54.070;10.012;2023-02-21T05:24:28;19.63;;;3.85;;
30420;SDS011;17218;54.070;10.012;2023-02-21T05:26:57;19.90;;;4.18;;
30420;SDS011;17218;54.070;10.012;2023-02-21T05:29:23;18.33;;;4.05;;
30420;SDS011;17218;54.070;10.012;2023-02-21T05:31:50;18.90;;;4.43;;
30420;SDS011;17218;54.070;10.012;2023-02-21T05:34:16;23.83;;;5.30;;
30420;SDS011;17218;54.070;10.012;2023-02-21T05:36:43;22.02;;;3.78;;
30420;SDS011;17218;54.070;10.012;2023-02-21T05:39:10;25.23;;;4.38;;
30420;SDS011;17218;54.070;10.012;2023-02-21T05:41:36;17.23;;;3.67;;
30420;SDS011;17218;54.070;10.012;2023-02-21T05:44:04;23.10;;;3.90;;
30420;SDS011;17218;54.070;10.012;2023-02-21T05:46:32;19.17;;;3.80;;
30420;SDS011;17218;54.070;10.012;2023-02-21T05:49:00;27.80;;;4.47;;
30420;SDS011;17218;54.070;10.012;2023-02-21T05:51:32;17.17;;;3.50;;
30420;SDS011;17218;54.070;10.012;2023-02-21T05:54:00;18.67;;;3.50;;
30420;SDS011;17218;54.070;10.012;2023-02-21T05:56:26;22.30;;;3.95;;
30420;SDS011;17218;54.070;10.012;2023-02-21T05:58:53;17.88;;;4.32;;
30420;SDS011;17218;54.070;10.012;2023-02-21T06:01:21;21.17;;;4.28;;
30420;SDS011;17218;54.070;10.012;2023-02-21T06:03:47;18.10;;;3.80;;
30420;SDS011;17218;54.070;10.012;2023-02-21T06:06:14;24.48;;;3.70;;
30420;SDS011;17218;54.070;10.012;2023-02-21T06:08:41;21.17;;;4.13;;
30420;SDS011;17218;54.070;10.012;2023-02-21T06:11:08;20.70;;;4.03;;
30420;SDS011;17218;54.070;10.012;2023-02-21T06:13:35;27.52;;;4.40;;
30420;SDS011;17218;54.070;10.012;2023-02-21T06:16:01;23.80;;;4.63;;
30420;SDS011;17218;54.070;10.012;2023-02-21T06:18:29;22.40;;;4.10;;
30420;SDS011;17218;54.070;10.012;2023-02-21T06:20:56;26.48;;;4.72;;
30420;SDS011;17218;54.070;10.012;2023-02-21T06:23:22;15.38;;;3.47;;
30420;SDS011;17218;54.070;10.012;2023-02-21T06:25:49;20.48;;;3.55;;
30420;SDS011;17218;54.070;10.012;2023-02-21T06:28:16;16.10;;;4.32;;
30420;SDS011;17218;54.070;10.012;2023-02-21T06:30:43;21.58;;;4.82;;
30420;SDS011;17218;54.070;10.012;2023-02-21T06:33:10;23.98;;;4.53;;
30420;SDS011;17218;54.070;10.012;2023-02-21T06:35:37;23.90;;;4.38;;
30420;SDS011;17218;54.070;10.012;2023-02-21T06:38:04;21.98;;;4.25;;
30420;SDS011;17218;54.070;10.012;2023-02-21T06:40:30;20.85;;;4.65;;
30420;SDS011;17218;54.070;10.012;2023-02-21T06:42:57;16.30;;;3.85;;
30420;SDS011;17218;54.070;10.012;2023-02-21T06:45:23;21.10;;;4.50;;
30420;SDS011;17218;54.070;10.012;2023-02-21T06:47:50;15.02;;;3.40;;
30420;SDS011;17218;54.070;10.012;2023-02-21T06:50:16;23.42;;;4.65;;
30420;SDS011;17218;54.070;10.012;2023-02-21T06:52:44;17.23;;;3.72;;
30420;SDS011;17218;54.070;10.012;2023-02-21T06:55:11;13.20;;;3.25;;
30420;SDS011;17218;54.070;10.012;2023-02-21T06:57:37;18.08;;;3.80;;
30420;SDS011;17218;54.070;10.012;2023-02-21T07:00:04;16.77;;;2.80;;
30420;SDS011;17218;54.070;10.012;2023-02-21T07:02:31;19.95;;;4.15;;
30420;SDS011;17218;54.070;10.012;2023-02-21T07:04:58;24.10;;;4.32;;
30420;SDS011;17218;54.070;10.012;2023-02-21T07:07:24;19.13;;;4.93;;
30420;SDS011;17218;54.070;10.012;2023-02-21T07:09:52;15.50;;;4.28;;
30420;SDS011;17218;54.070;10.012;2023-02-21T07:12:18;24.80;;;5.13;;
30420;SDS011;17218;54.070;10.012;2023-02-21T07:14:45;27.05;;;3.97;;
30420;SDS011;17218;54.070;10.012;2023-02-21T07:17:11;22.08;;;4.65;;
30420;SDS011;17218;54.070;10.012;2023-02-21T07:19:38;28.40;;;5.93;;
30420;SDS011;17218;54.070;10.012;2023-02-21T07:22:06;20.02;;;4.88;;
30420;SDS011;17218;54.070;10.012;2023-02-21T07:24:32;27.95;;;4.30;;
30420;SDS011;17218;54.070;10.012;2023-02-21T07:27:00;34.38;;;5.18;;
30420;SDS011;17218;54.070;10.012;2023-02-21T07:29:27;20.65;;;3.53;;
30420;SDS011;17218;54.070;10.012;2023-02-21T07:31:53;21.00;;;4.28;;
30420;SDS011;17218;54.070;10.012;2023-02-21T07:34:20;19.92;;;4.90;;
30420;SDS011;17218;54.070;10.012;2023-02-21T07:36:47;20.20;;;4.13;;
30420;SDS011;17218;54.070;10.012;2023-02-21T07:39:13;22.63;;;3.28;;
30420;SDS011;17218;54.070;10.012;2023-02-21T07:41:40;27.17;;;4.53;;
30420;SDS011;17218;54.070;10.012;2023-02-21T07:44:08;18.60;;;3.88;;
30420;SDS011;17218;54.070;10.012;2023-02-21T07:46:35;23.13;;;5.22;;
30420;SDS011;17218;54.070;10.012;2023-02-21T07:49:01;22.20;;;4.13;;
30420;SDS011;17218;54.070;10.012;2023-02-21T07:51:28;17.40;;;3.95;;
30420;SDS011;17218;54.070;10.012;2023-02-21T07:53:55;13.32;;;3.90;;
30420;SDS011;17218;54.070;10.012;2023-02-21T07:56:21;20.27;;;3.60;;
30420;SDS011;17218;54.070;10.012;2023-02-21T07:58:48;21.50;;;3.63;;
30420;SDS011;17218;54.070;10.012;2023-02-21T08:01:16;22.07;;;4.13;;
30420;SDS011;17218;54.070;10.012;2023-02-21T08:03:43;26.30;;;3.75;;
30420;SDS011;17218;54.070;10.012;2023-02-21T08:06:09;20.50;;;4.22;;
30420;SDS011;17218;54.070;10.012;2023-02-21T08:08:36;28.55;;;5.65;;
30420;SDS011;17218;54.070;10.012;2023-02-21T08:11:03;17.48;;;4.20;;
30420;SDS011;17218;54.070;10.012;2023-02-21T08:13:29;23.88;;;4.82;;
30420;SDS011;17218;54.070;10.012;2023-02-21T08:15:56;26.42;;;5.13;;
30420;SDS011;17218;54.070;10.012;2023-02-21T08:18:24;25.07;;;4.13;;
30420;SDS011;17218;54.070;10.012;2023-02-21T08:20:51;23.02;;;3.95;;
30420;SDS011;17218;54.070;10.012;2023-02-21T08:23:18;26.90;;;3.75;;
30420;SDS011;17218;54.070;10.012;2023-02-21T08:25:45;15.60;;;3.67;;
30420;SDS011;17218;54.070;10.012;2023-02-21T08:28:12;24.67;;;4.90;;
30420;SDS011;17218;54.070;10.012;2023-02-21T08:30:39;21.00;;;3.90;;
30420;SDS011;17218;54.070;10.012;2023-02-21T08:33:06;23.83;;;4.55;;
30420;SDS011;17218;54.070;10.012;2023-02-21T08:35:34;23.10;;;4.38;;
30420;SDS011;17218;54.070;10.012;2023-02-21T08:38:01;25.63;;;4.65;;
30420;SDS011;17218;54.070;10.012;2023-02-21T08:40:28;33.33;;;4.47;;
30420;SDS011;17218;54.070;10.012;2023-02-21T08:42:55;18.77;;;3.92;;
30420;SDS011;17218;54.070;10.012;2023-02-21T08:45:23;24.73;;;3.90;;
30420;SDS011;17218;54.070;10.012;2023-02-21T08:47:51;20.73;;;3.88;;
30420;SDS011;17218;54.070;10.012;2023-02-21T08:50:19;18.40;;;4.30;;
30420;SDS011;17218;54.070;10.012;2023-02-21T08:52:48;16.13;;;4.22;;
30420;SDS011;17218;54.070;10.012;2023-02-21T08:55:16;22.73;;;4.38;;
30420;SDS011;17218;54.070;10.012;2023-02-21T08:57:43;21.70;;;4.40;;
30420;SDS011;17218;54.070;10.012;2023-02-21T09:00:12;17.85;;;4.03;;
30420;SDS011;17218;54.070;10.012;2023-02-21T09:02:39;15.77;;;3.72;;
30420;SDS011;17218;54.070;10.012;2023-02-21T09:05:06;20.48;;;3.28;;
30420;SDS011;17218;54.070;10.012;2023-02-21T09:07:33;22.92;;;3.88;;
30420;SDS011;17218;54.070;10.012;2023-02-21T09:10:01;22.42;;;4.68;;
30420;SDS011;17218;54.070;10.012;2023-02-21T09:12:28;18.52;;;5.70;;
30420;SDS011;17218;54.070;10.012;2023-02-21T09:14:55;20.40;;;3.90;;
30420;SDS011;17218;54.070;10.012;2023-02-21T09:17:21;19.52;;;5.65;;
30420;SDS011;17218;54.070;10.012;2023-02-21T09:19:48;31.08;;;6.10;;
30420;SDS011;17218;54.070;10.012;2023-02-21T09:22:14;21.13;;;4.80;;
30420;SDS011;17218;54.070;10.012;2023-02-21T09:24:42;24.33;;;4.22;;
30420;SDS011;17218;54.070;10.012;2023-02-21T09:27:10;21.15;;;4.95;;
30420;SDS011;17218;54.070;10.012;2023-02-21T09:29:37;18.15;;;4.03;;
30420;SDS011;17218;54.070;10.012;2023-02-21T09:32:03;21.98;;;4.13;;
30420;SDS011;17218;54.070;10.012;2023-02-21T09:34:30;20.98;;;4.07;;
30420;SDS011;17218;54.070;10.012;2023-02-21T09:36:56;21.02;;;4.40;;
30420;SDS011;17218;54.070;10.012;2023-02-21T09:39:23;17.02;;;4.03;;
30420;SDS011;17218;54.070;10.012;2023-02-21T09:41:50;22.52;;;4.20;;
30420;SDS011;17218;54.070;10.012;2023-02-21T09:44:22;18.00;;;4.45;;
30420;SDS011;17218;54.070;10.012;2023-02-21T09:46:52;18.63;;;4.47;;
30420;SDS011;17218;54.070;10.012;2023-02-21T09:49:22;20.50;;;4.70;;
30420;SDS011;17218;54.070;10.012;2023-02-21T09:51:51;22.70;;;4.30;;
30420;SDS011;17218;54.070;10.012;2023-02-21T09:54:21;15.98;;;3.95;;
30420;SDS011;17218;54.070;10.012;2023-02-21T09:56:50;18.02;;;3.35;;
30420;SDS011;17218;54.070;10.012;2023-02-21T09:59:16;20.23;;;4.72;;
30420;SDS011;17218;54.070;10.012;2023-02-21T10:01:51;18.25;;;3.80;;
30420;SDS011;17218;54.070;10.012;2023-02-21T10:04:26;19.88;;;4.18;;
30420;SDS011;17218;54.070;10.012;2023-02-21T10:07:04;16.02;;;3.90;;
30420;SDS011;17218;54.070;10.012;2023-02-21T10:09:39;14.82;;;3.95;;
30420;SDS011;17218;54.070;10.012;2023-02-21T10:12:11;18.38;;;4.38;;
30420;SDS011;17218;54.070;10.012;2023-02-21T10:14:55;15.65;;;4.05;;
30420;SDS011;17218;54.070;10.012;2023-02-21T10:17:43;19.45;;;4.38;;
30420;SDS011;17218;54.070;10.012;2023-02-21T10:20:15;18.20;;;3.30;;
30420;SDS011;17218;54.070;10.012;2023-02-21T10:22:47;22.25;;;3.95;;
30420;SDS011;17218;54.070;10.012;2023-02-21T10:25:21;22.38;;;3.95;;
30420;SDS011;17218;54.070;10.012;2023-02-21T10:27:50;22.20;;;3.83;;
30420;SDS011;17218;54.070;10.012;2023-02-21T10:30:19;14.45;;;3.22;;
30420;SDS011;17218;54.070;10.012;2023-02-21T10:32:54;17.98;;;4.10;;
30420;SDS011;17218;54.070;10.012;2023-02-21T10:35:20;18.25;;;3.80;;
30420;SDS011;17218;54.070;10.012;2023-02-21T10:37:47;14.55;;;3.15;;
30420;SDS011;17218;54.070;10.012;2023-02-21T10:43:07;25.55;;;4.78;;
30420;SDS011;17218;54.070;10.012;2023-02-21T10:45:37;18.17;;;4.10;;
30420;SDS011;17218;54.070;10.012;2023-02-21T10:48:09;23.27;;;3.97;;
30420;SDS011;17218;54.070;10.012;2023-02-21T10:50:39;20.08;;;4.10;;
30420;SDS011;17218;54.070;10.012;2023-02-21T10:53:16;23.38;;;4.82;;
30420;SDS011;17218;54.070;10.012;2023-02-21T10:58:46;17.10;;;3.95;;
30420;SDS011;17218;54.070;10.012;2023-02-21T11:01:14;18.35;;;3.95;;
30420;SDS011;17218;54.070;10.012;2023-02-21T11:03:47;14.82;;;3.38;;
30420;SDS011;17218;54.070;10.012;2023-02-21T11:06:26;21.88;;;4.43;;
30420;SDS011;17218;54.070;10.012;2023-02-21T11:08:59;14.05;;;3.40;;
30420;SDS011;17218;54.070;10.012;2023-02-21T11:11:33;16.35;;;3.88;;
30420;SDS011;17218;54.070;10.012;2023-02-21T11:14:06;13.63;;;3.72;;
30420;SDS011;17218;54.070;10.012;2023-02-21T11:16:44;15.63;;;4.05;;
30420;SDS011;17218;54.070;10.012;2023-02-21T11:19:12;20.35;;;4.13;;
30420;SDS011;17218;54.070;10.012;2023-02-21T11:21:39;14.15;;;3.20;;
30420;SDS011;17218;54.070;10.012;2023-02-21T11:24:09;14.10;;;3.35;;
30420;SDS011;17218;54.070;10.012;2023-02-21T11:26:38;16.10;;;3.45;;
30420;SDS011;17218;54.070;10.012;2023-02-21T11:29:11;17.67;;;3.80;;
30420;SDS011;17218;54.070;10.012;2023-02-21T11:31:40;18.33;;;3.28;;
30420;SDS011;17218;54.070;10.012;2023-02-21T11:34:08;18.65;;;3.78;;
30420;SDS011;17218;54.070;10.012;2023-02-21T11:36:40;17.27;;;4.38;;
30420;SDS011;17218;54.070;10.012;2023-02-21T11:39:13;17.88;;;3.70;;
30420;SDS011;17218;54.070;10.012;2023-02-21T11:41:44;13.98;;;4.13;;
30420;SDS011;17218;54.070;10.012;2023-02-21T11:44:22;15.43;;;3.67;;
30420;SDS011;17218;54.070;10.012;2023-02-21T11:46:56;16.83;;;3.28;;
30420;SDS011;17218;54.070;10.012;2023-02-21T11:49:35;11.90;;;3.72;;
30420;SDS011;17218;54.070;10.012;2023-02-21T11:52:08;17.15;;;4.30;;
30420;SDS011;17218;54.070;10.012;2023-02-21T11:54:39;13.27;;;3.85;;
30420;SDS011;17218;54.070;10.012;2023-02-21T11:57:09;18.13;;;4.45;;
30420;SDS011;17218;54.070;10.012;2023-02-21T11:59:44;14.45;;;4.20;;
30420;SDS011;17218;54.070;10.012;2023-02-21T12:02:21;13.57;;;3.45;;
30420;SDS011;17218;54.070;10.012;2023-02-21T12:05:02;17.00;;;4.07;;
30420;SDS011;17218;54.070;10.012;2023-02-21T12:07:39;15.50;;;4.07;;
30420;SDS011;17218;54.070;10.012;2023-02-21T12:10:21;18.10;;;3.80;;
30420;SDS011;17218;54.070;10.012;2023-02-21T12:13:00;18.60;;;4.25;;
30420;SDS011;17218;54.070;10.012;2023-02-21T12:15:37;17.85;;;4.03;;
30420;SDS011;17218;54.070;10.012;2023-02-21T12:18:23;19.52;;;4.32;;
30420;SDS011;17218;54.070;10.012;2023-02-21T12:21:06;14.38;;;3.50;;
30420;SDS011;17218;54.070;10.012;2023-02-21T12:23:44;18.63;;;3.58;;
30420;SDS011;17218;54.070;10.012;2023-02-21T12:26:20;20.20;;;3.63;;
30420;SDS011;17218;54.070;10.012;2023-02-21T12:29:08;15.43;;;3.75;;
30420;SDS011;17218;54.070;10.012;2023-02-21T12:31:50;14.27;;;3.22;;
30420;SDS011;17218;54.070;10.012;2023-02-21T12:34:31;16.90;;;4.28;;
30420;SDS011;17218;54.070;10.012;2023-02-21T12:37:15;18.13;;;4.25;;
30420;SDS011;17218;54.070;10.012;2023-02-21T12:39:53;18.65;;;3.35;;
30420;SDS011;17218;54.070;10.012;2023-02-21T12:42:33;14.13;;;5.20;;
30420;SDS011;17218;54.070;10.012;2023-02-21T12:45:16;19.45;;;4.28;;
30420;SDS011;17218;54.070;10.012;2023-02-21T12:48:03;16.98;;;3.80;;
30420;SDS011;17218;54.070;10.012;2023-02-21T12:50:38;19.55;;;3.33;;
30420;SDS011;17218;54.070;10.012;2023-02-21T12:53:09;17.27;;;3.65;;
30420;SDS011;17218;54.070;10.012;2023-02-21T12:55:39;16.25;;;3.10;;
30420;SDS011;17218;54.070;10.012;2023-02-21T12:58:12;13.77;;;4.13;;
30420;SDS011;17218;54.070;10.012;2023-02-21T13:00:43;13.43;;;3.15;;
30420;SDS011;17218;54.070;10.012;2023-02-21T13:03:22;18.52;;;3.60;;
30420;SDS011;17218;54.070;10.012;2023-02-21T13:06:01;15.45;;;3.40;;
30420;SDS011;17218;54.070;10.012;2023-02-21T13:08:33;8.38;;;2.97;;
30420;SDS011;17218;54.070;10.012;2023-02-21T13:11:07;12.70;;;2.92;;
30420;SDS011;17218;54.070;10.012;2023-02-21T13:13:37;13.30;;;3.42;;
30420;SDS011;17218;54.070;10.012;2023-02-21T13:16:04;10.70;;;3.45;;
30420;SDS011;17218;54.070;10.012;2023-02-21T13:18:35;16.08;;;3.90;;
30420;SDS011;17218;54.070;10.012;2023-02-21T13:21:08;12.85;;;4.15;;
30420;SDS011;17218;54.070;10.012;2023-02-21T13:23:50;16.45;;;3.15;;
30420;SDS011;17218;54.070;10.012;2023-02-21T13:26:44;14.73;;;3.08;;
30420;SDS011;17218;54.070;10.012;2023-02-21T13:29:19;17.27;;;4.07;;
30420;SDS011;17218;54.070;10.012;2023-02-21T13:31:47;14.90;;;3.45;;
30420;SDS011;17218;54.070;10.012;2023-02-21T13:34:21;11.43;;;3.30;;
30420;SDS011;17218;54.070;10.012;2023-02-21T13:36:52;13.60;;;3.67;;
30420;SDS011;17218;54.070;10.012;2023-02-21T13:39:21;14.93;;;3.28;;
30420;SDS011;17218;54.070;10.012;2023-02-21T13:42:03;16.80;;;4.00;;
30420;SDS011;17218;54.070;10.012;2023-02-21T13:44:34;14.88;;;3.30;;
30420;SDS011;17218;54.070;10.012;2023-02-21T13:47:07;15.13;;;3.33;;
30420;SDS011;17218;54.070;10.012;2023-02-21T13:52:36;14.65;;;4.57;;
30420;SDS011;17218;54.070;10.012;2023-02-21T14:01:12;14.75;;;3.42;;
30420;SDS011;17218;54.070;10.012;2023-02-21T14:03:46;16.75;;;3.50;;
30420;SDS011;17218;54.070;10.012;2023-02-21T14:06:31;12.80;;;3.35;;
30420;SDS011;17218;54.070;10.012;2023-02-21T14:09:01;13.40;;;3.10;;
30420;SDS011;17218;54.070;10.012;2023-02-21T14:11:34;11.80;;;3.08;;
30420;SDS011;17218;54.070;10.012;2023-02-21T14:14:04;12.57;;;3.15;;
30420;SDS011;17218;54.070;10.012;2023-02-21T14:16:47;12.82;;;2.85;;
30420;SDS011;17218;54.070;10.012;2023-02-21T14:19:18;9.27;;;2.92;;
30420;SDS011;17218;54.070;10.012;2023-02-21T14:21:49;15.25;;;4.60;;
30420;SDS011;17218;54.070;10.012;2023-02-21T14:24:21;13.90;;;3.08;;
30420;SDS011;17218;54.070;10.012;2023-02-21T14:26:54;11.40;;;3.10;;
30420;SDS011;17218;54.070;10.012;2023-02-21T14:29:29;13.00;;;3.55;;
30420;SDS011;17218;54.070;10.012;2023-02-21T14:34:56;9.57;;;3.13;;
30420;SDS011;17218;54.070;10.012;2023-02-21T14:37:26;12.73;;;2.65;;
30420;SDS011;17218;54.070;10.012;2023-02-21T14:39:59;16.95;;;3.67;;
30420;SDS011;17218;54.070;10.012;2023-02-21T14:42:45;13.32;;;3.03;;
30420;SDS011;17218;54.070;10.012;2023-02-21T14:45:25;18.77;;;3.78;;
30420;SDS011;17218;54.070;10.012;2023-02-21T14:48:18;14.30;;;3.30;;
30420;SDS011;17218;54.070;10.012;2023-02-21T14:51:21;18.05;;;3.30;;
30420;SDS011;17218;54.070;10.012;2023-02-21T14:54:09;17.35;;;3.42;;
30420;SDS011;17218;54.070;10.012;2023-02-21T14:57:18;13.93;;;3.20;;
30420;SDS011;17218;54.070;10.012;2023-02-21T15:00:07;12.15;;;3.03;;
30420;SDS011;17218;54.070;10.012;2023-02-21T15:02:45;15.48;;;3.17;;
30420;SDS011;17218;54.070;10.012;2023-02-21T15:05:18;14.60;;;3.05;;
30420;SDS011;17218;54.070;10.012;2023-02-21T15:07:51;12.15;;;3.15;;
30420;SDS011;17218;54.070;10.012;2023-02-21T15:10:24;10.95;;;3.58;;
30420;SDS011;17218;54.070;10.012;2023-02-21T15:12:52;7.40;;;2.92;;
30420;SDS011;17218;54.070;10.012;2023-02-21T15:15:23;13.85;;;3.20;;
30420;SDS011;17218;54.070;10.012;2023-02-21T15:17:57;17.55;;;3.30;;
30420;SDS011;17218;54.070;10.012;2023-02-21T15:20:27;15.38;;;3.08;;
30420;SDS011;17218;54.070;10.012;2023-02-21T15:22:55;13.48;;;3.67;;
30420;SDS011;17218;54.070;10.012;2023-02-21T15:25:23;14.43;;;3.25;;
30420;SDS011;17218;54.070;10.012;2023-02-21T15:27:54;12.73;;;3.28;;